Time;durP1;ratioP1;P1;durP2;ratioP2;P2;SDS_P1;SDS_P2;PMS_P1;PMS_P2;Temp;Humidity;BMP_temperature;BMP_pressure;BME280_temperature;BME280_humidity;BME280_pressure;Samples;Min_cycle;Max_cycle;Signal;HPM_P1;HPM_P2
2022/09/10 00:01:48;;;;;;;;;;;;;;;15.01;100.00;100618.38;12862256;23;19990;-72
2022/09/10 00:06:51;;;;;;;;;;;;;;;15.00;100.00;100616.63;12863354;23;19958;-69
2022/09/10 00:11:55;;;;;;;;;;;;;;;15.01;100.00;100608.75;12862521;23;19952;-72
2022/09/10 00:16:58;;;;;;;;;;;;;;;15.05;100.00;100604.31;12861488;23;20572;-72
2022/09/10 00:22:01;;;;;;;;;;;;;;;15.09;100.00;100598.13;12860652;23;20014;-69
2022/09/10 00:27:05;;;;;;;;;;;;;;;15.11;100.00;100591.09;12860232;23;19954;-72
2022/09/10 00:32:08;;;;;;;;;;;;;;;15.11;100.00;100583.25;12860487;23;19935;-72
2022/09/10 00:37:11;;;;;;;;;;;;;;;15.01;100.00;100580.00;12860233;23;20002;-71
2022/09/10 00:42:17;;;;;;;;;;;;;;;14.97;100.00;100574.91;12860636;23;20007;-73
2022/09/10 00:47:23;;;;;;;;;;;;;;;14.96;100.00;100570.56;12865285;23;19955;-66
2022/09/10 00:52:26;;;;;;;;;;;;;;;14.81;100.00;100577.03;12865304;23;19998;-65
2022/09/10 00:57:30;;;;;;;;;;;;;;;14.90;100.00;100578.56;12860735;23;19951;-66
2022/09/10 01:02:34;;;;;;;;;;;;;;;14.89;100.00;100576.84;12859565;23;19934;-65
2022/09/10 01:07:38;;;;;;;;;;;;;;;14.79;100.00;100577.94;12859637;23;19919;-66
2022/09/10 01:12:53;;;;;;;;;;;;;;;14.64;100.00;100575.69;12859976;23;19999;-66
2022/09/10 01:18:04;;;;;;;;;;;;;;;14.67;100.00;100565.16;12864687;23;20363;-67
2022/09/10 01:23:21;;;;;;;;;;;;;;;14.70;100.00;100554.66;12864420;23;19934;-69
2022/09/10 01:28:28;;;;;;;;;;;;;;;14.82;100.00;100551.75;12863687;23;20000;-75
2022/09/10 01:33:34;;;;;;;;;;;;;;;14.86;100.00;100548.16;12863778;23;20007;-74
2022/09/10 01:38:38;;;;;;;;;;;;;;;14.91;100.00;100541.91;12865657;23;19982;-73
2022/09/10 01:43:42;;;;;;;;;;;;;;;14.93;100.00;100542.75;12861595;23;19970;-73
2022/09/10 01:48:54;;;;;;;;;;;;;;;14.90;100.00;100532.38;12859922;23;20581;-74
2022/09/10 01:54:03;;;;;;;;;;;;;;;14.89;100.00;100532.41;12863338;23;19954;-70
2022/09/10 01:59:14;;;;;;;;;;;;;;;14.89;100.00;100532.41;12862976;23;19965;-74
2022/09/10 02:04:17;;;;;;;;;;;;;;;14.88;100.00;100517.63;12862577;23;19955;-73
2022/09/10 02:09:21;;;;;;;;;;;;;;;14.76;100.00;100523.16;12859116;23;19991;-73
2022/09/10 02:14:25;;;;;;;;;;;;;;;14.78;100.00;100518.75;12859442;23;20297;-69
2022/09/10 02:19:28;;;;;;;;;;;;;;;14.84;100.00;100523.84;12860018;23;19994;-70
2022/09/10 02:24:31;;;;;;;;;;;;;;;14.86;100.00;100514.19;12861324;23;19966;-71
2022/09/10 02:29:37;;;;;;;;;;;;;;;14.83;100.00;100504.69;12862109;23;19924;-72
2022/09/10 02:34:40;;;;;;;;;;;;;;;14.78;100.00;100498.72;12869314;23;19920;-70
2022/09/10 02:39:43;;;;;;;;;;;;;;;14.69;100.00;100500.66;12868942;23;20050;-72
2022/09/10 02:44:48;;;;;;;;;;;;;;;14.77;100.00;100494.34;12869565;23;19999;-72
2022/09/10 02:49:51;;;;;;;;;;;;;;;14.77;100.00;100502.19;12869439;23;19994;-70
2022/09/10 02:54:54;;;;;;;;;;;;;;;14.72;100.00;100493.63;12869505;23;20319;-72
2022/09/10 02:59:59;;;;;;;;;;;;;;;14.69;100.00;100490.22;12867201;23;19954;-72
2022/09/10 03:05:03;;;;;;;;;;;;;;;14.67;100.00;100478.94;12862235;23;20338;-72
2022/09/10 03:10:07;;;;;;;;;;;;;;;14.70;100.00;100495.41;12862519;23;20012;-72
2022/09/10 03:15:13;;;;;;;;;;;;;;;14.71;100.00;100491.03;12862419;23;19996;-71
2022/09/10 03:20:17;;;;;;;;;;;;;;;14.66;100.00;100482.47;12861481;23;19948;-71
2022/09/10 03:25:21;;;;;;;;;;;;;;;14.59;100.00;100486.13;12865101;23;19928;-72
2022/09/10 03:30:25;;;;;;;;;;;;;;;14.56;100.00;100486.22;12868502;23;19947;-65
2022/09/10 03:35:28;;;;;;;;;;;;;;;14.61;100.00;100494.78;12868666;23;19952;-67
2022/09/10 03:40:31;;;;;;;;;;;;;;;14.54;100.00;100493.22;12868249;23;19967;-66
2022/09/10 03:45:36;;;;;;;;;;;;;;;14.49;100.00;100492.47;12862678;23;20019;-64
2022/09/10 03:50:39;;;;;;;;;;;;;;;14.61;100.00;100486.94;12861306;23;19954;-66
2022/09/10 03:55:42;;;;;;;;;;;;;;;14.56;100.00;100497.53;12861106;23;20283;-65
2022/09/10 04:00:47;;;;;;;;;;;;;;;14.55;100.00;100495.78;12861550;23;19948;-65
2022/09/10 04:05:50;;;;;;;;;;;;;;;14.54;100.00;100501.91;12860764;23;19955;-68
2022/09/10 04:10:55;;;;;;;;;;;;;;;14.52;100.00;100492.38;12861519;23;20095;-67
2022/09/10 04:16:00;;;;;;;;;;;;;;;14.55;100.00;100506.22;12860436;23;19958;-68
2022/09/10 04:21:03;;;;;;;;;;;;;;;14.52;100.00;100501.09;12860373;23;19959;-68
2022/09/10 04:26:11;;;;;;;;;;;;;;;14.40;100.00;100488.31;12860934;23;20049;-66
2022/09/10 04:31:15;;;;;;;;;;;;;;;14.39;100.00;100472.69;12862605;23;19954;-71
2022/09/10 04:36:19;;;;;;;;;;;;;;;14.60;100.00;100465.19;12834407;23;19991;-72
2022/09/10 04:41:22;;;;;;;;;;;;;;;14.66;100.00;100451.97;12860147;23;19930;-72
2022/09/10 04:46:26;;;;;;;;;;;;;;;14.67;100.00;100444.97;12860203;23;19954;-71
2022/09/10 04:51:29;;;;;;;;;;;;;;;14.63;100.00;100443.38;12860211;23;19951;-73
2022/09/10 04:56:33;;;;;;;;;;;;;;;14.61;100.00;100448.63;12861578;23;19987;-73
2022/09/10 05:01:38;;;;;;;;;;;;;;;14.56;100.00;100457.47;12862826;23;20023;-72
2022/09/10 05:06:41;;;;;;;;;;;;;;;14.57;100.00;100461.78;12862517;23;19974;-72
2022/09/10 05:11:45;;;;;;;;;;;;;;;14.58;100.00;100424.34;12863813;23;20003;-72
2022/09/10 05:16:50;;;;;;;;;;;;;;;14.63;100.00;100420.69;12861045;23;20027;-73
2022/09/10 05:21:53;;;;;;;;;;;;;;;14.57;100.00;100423.47;12860496;23;19947;-70
2022/09/10 05:26:58;;;;;;;;;;;;;;;14.72;100.00;100432.69;12859417;23;20003;-71
2022/09/10 05:32:02;;;;;;;;;;;;;;;14.64;100.00;100439.84;12859594;23;19932;-73
2022/09/10 05:37:07;;;;;;;;;;;;;;;14.63;100.00;100435.53;12859875;23;20231;-72
2022/09/10 05:42:10;;;;;;;;;;;;;;;14.61;100.00;100445.16;12859321;23;19947;-67
2022/09/10 05:47:14;;;;;;;;;;;;;;;14.58;100.00;100437.41;12858842;23;20274;-65
2022/09/10 05:52:17;;;;;;;;;;;;;;;14.71;100.00;100423.13;12860839;23;19999;-74
2022/09/10 05:57:20;;;;;;;;;;;;;;;14.66;100.00;100419.78;12866173;23;19944;-69
2022/09/10 06:02:25;;;;;;;;;;;;;;;14.60;100.00;100414.72;12866091;23;20268;-72
2022/09/10 06:07:28;;;;;;;;;;;;;;;14.65;100.00;100403.22;12865810;23;19970;-73
2022/09/10 06:12:33;;;;;;;;;;;;;;;14.71;100.00;100408.31;12866335;23;20262;-72
2022/09/10 06:17:38;;;;;;;;;;;;;;;14.71;100.00;100410.06;12866070;23;19951;-74
2022/09/10 06:22:41;;;;;;;;;;;;;;;14.70;100.00;100409.19;12858698;23;19947;-71
2022/09/10 06:27:44;;;;;;;;;;;;;;;14.70;100.00;100405.75;12859741;23;19944;-72
2022/09/10 06:32:48;;;;;;;;;;;;;;;14.66;100.00;100399.72;12861368;23;20338;-66
2022/09/10 06:37:51;;;;;;;;;;;;;;;14.76;100.00;100395.09;12860095;23;20005;-71
2022/09/10 06:42:54;;;;;;;;;;;;;;;14.71;100.00;100394.38;12858280;23;20238;-71
2022/09/10 06:48:00;;;;;;;;;;;;;;;14.68;100.00;100394.47;12859492;23;19924;-71
2022/09/10 06:53:27;;;;;;;;;;;;;;;14.78;100.00;100388.09;12857859;23;20280;-72
2022/09/10 06:58:30;;;;;;;;;;;;;;;14.85;100.00;100387.91;12858799;23;19920;-70
2022/09/10 07:03:35;;;;;;;;;;;;;;;14.82;100.00;100385.34;12858232;23;20055;-72
2022/09/10 07:08:39;;;;;;;;;;;;;;;14.95;100.00;100391.97;12858808;23;19995;-69
2022/09/10 07:13:42;;;;;;;;;;;;;;;14.86;100.00;100393.97;12859862;23;20011;-71
2022/09/10 07:18:49;;;;;;;;;;;;;;;14.97;100.00;100382.34;12861803;23;19948;-71
2022/09/10 07:23:54;;;;;;;;;;;;;;;14.94;100.00;100397.25;12862133;23;19934;-71
2022/09/10 07:28:58;;;;;;;;;;;;;;;14.94;100.00;100400.69;12868099;23;20441;-75
2022/09/10 07:34:02;;;;;;;;;;;;;;;14.84;100.00;100404.47;12861660;23;19959;-71
2022/09/10 07:39:05;;;;;;;;;;;;;;;14.85;100.00;100411.41;12861709;23;19935;-72
2022/09/10 07:44:08;;;;;;;;;;;;;;;14.81;100.00;100403.69;12861070;23;19931;-72
2022/09/10 07:49:14;;;;;;;;;;;;;;;14.74;100.00;100402.13;12860978;23;19951;-71
2022/09/10 07:54:18;;;;;;;;;;;;;;;14.80;100.00;100412.44;12861628;23;20315;-72
2022/09/10 07:59:21;;;;;;;;;;;;;;;14.85;100.00;100421.88;12861785;23;20323;-71
2022/09/10 08:04:25;;;;;;;;;;;;;;;14.86;100.00;100412.25;12862048;23;20303;-72
2022/09/10 08:09:28;;;;;;;;;;;;;;;14.96;100.00;100418.97;12863831;23;20426;-70
2022/09/10 08:14:31;;;;;;;;;;;;;;;15.02;100.00;100421.41;12861594;23;20367;-73
2022/09/10 08:19:36;;;;;;;;;;;;;;;14.96;100.00;100424.22;12860599;23;20062;-73
2022/09/10 08:24:39;;;;;;;;;;;;;;;14.99;100.00;100417.13;12859995;23;20377;-74
2022/09/10 08:29:42;;;;;;;;;;;;;;;14.94;100.00;100416.38;12860878;23;19947;-75
2022/09/10 08:34:47;;;;;;;;;;;;;;;14.95;100.00;100412.00;12859567;23;19948;-74
2022/09/10 08:39:50;;;;;;;;;;;;;;;15.02;100.00;100403.97;12868328;23;20027;-72
2022/09/10 08:44:56;;;;;;;;;;;;;;;15.14;100.00;100408.00;12860138;23;20209;-73
2022/09/10 08:50:02;;;;;;;;;;;;;;;15.05;100.00;100408.25;12859755;23;19947;-71
2022/09/10 08:55:12;;;;;;;;;;;;;;;15.17;100.00;100404.47;12860390;23;19944;-73
2022/09/10 09:00:17;;;;;;;;;;;;;;;15.11;100.00;100402.00;12867983;23;19928;-72
2022/09/10 09:05:22;;;;;;;;;;;;;;;15.05;100.00;100408.25;12860075;23;19962;-73
2022/09/10 09:10:32;;;;;;;;;;;;;;;15.17;100.00;100412.31;12860229;23;20231;-73
2022/09/10 09:15:42;;;;;;;;;;;;;;;15.28;100.00;100423.31;12867130;23;19938;-75
2022/09/10 09:20:48;;;;;;;;;;;;;;;15.19;100.00;100423.56;12867221;23;19951;-76
2022/09/10 09:25:55;;;;;;;;;;;;;;;15.15;100.00;100406.25;12867594;23;20474;-73
2022/09/10 09:31:03;;;;;;;;;;;;;;;15.31;100.00;100411.00;12862654;23;20267;-73
2022/09/10 09:36:16;;;;;;;;;;;;;;;15.31;100.00;100404.91;12866986;23;19990;-73
2022/09/10 09:41:23;;;;;;;;;;;;;;;15.30;100.00;100404.06;12861469;23;19970;-72
2022/09/10 09:46:26;;;;;;;;;;;;;;;15.39;100.00;100398.56;12867035;23;20006;-72
2022/09/10 09:51:34;;;;;;;;;;;;;;;15.37;100.00;100399.50;12858944;23;19944;-72
2022/09/10 09:56:41;;;;;;;;;;;;;;;15.37;100.00;100394.28;12858939;23;20509;-73
2022/09/10 10:01:44;;;;;;;;;;;;;;;15.37;100.00;100389.03;12865817;23;20382;-73
2022/09/10 10:06:55;;;;;;;;;;;;;;;15.39;100.00;100380.28;12866250;23;19924;-72
2022/09/10 10:11:59;;;;;;;;;;;;;;;15.46;100.00;100373.13;12859419;23;19930;-74
2022/09/10 10:17:02;;;;;;;;;;;;;;;15.53;100.00;100382.50;12858328;23;19942;-73
2022/09/10 10:22:20;;;;;;;;;;;;;;;15.50;100.00;100388.66;12858623;23;19928;-74
2022/09/10 10:27:32;;;;;;;;;;;;;;;15.45;100.00;100369.66;12855595;23;19951;-73
2022/09/10 10:32:41;;;;;;;;;;;;;;;15.46;100.00;100360.88;12864971;23;20379;-71
2022/09/10 10:37:48;;;;;;;;;;;;;;;15.54;100.00;100345.81;12864328;23;20003;-73
2022/09/10 10:42:56;;;;;;;;;;;;;;;15.53;100.00;100338.03;12864195;23;20046;-71
2022/09/10 10:48:03;;;;;;;;;;;;;;;15.53;100.00;100346.72;12865025;23;20227;-74
2022/09/10 10:53:14;;;;;;;;;;;;;;;15.46;100.00;100333.88;12868549;23;20267;-74
2022/09/10 10:58:33;;;;;;;;;;;;;;;15.52;100.00;100342.41;12862464;23;19924;-75
2022/09/10 11:03:41;;;;;;;;;;;;;;;15.51;100.00;100345.06;12866831;23;19919;-75
2022/09/10 11:08:47;;;;;;;;;;;;;;;15.46;100.00;100328.66;12868115;23;19954;-70
2022/09/10 11:13:54;;;;;;;;;;;;;;;15.50;100.00;100320.66;12865179;23;19951;-72
2022/09/10 11:19:01;;;;;;;;;;;;;;;15.49;100.00;100324.19;12864262;23;20339;-71
2022/09/10 11:24:07;;;;;;;;;;;;;;;15.50;100.00;100331.13;12867153;23;19955;-70
2022/09/10 11:29:24;;;;;;;;;;;;;;;15.52;100.00;100331.06;12866655;23;19934;-76
2022/09/10 11:34:33;;;;;;;;;;;;;;;15.55;100.00;100336.22;12866217;23;19954;-73
2022/09/10 11:39:38;;;;;;;;;;;;;;;15.57;100.00;100319.56;12865037;23;19999;-73
2022/09/10 11:44:46;;;;;;;;;;;;;;;15.58;100.00;100315.19;12860772;23;19934;-73
2022/09/10 11:49:52;;;;;;;;;;;;;;;15.49;100.00;100323.31;12864757;23;19955;-75
2022/09/10 11:54:56;;;;;;;;;;;;;;;15.47;100.00;100312.91;12864907;23;20240;-77
2022/09/10 12:00:10;;;;;;;;;;;;;;;15.45;100.00;100309.47;12861252;23;19943;-74
2022/09/10 12:05:18;;;;;;;;;;;;;;;15.48;100.00;100301.53;12864141;23;19931;-73
2022/09/10 12:10:30;;;;;;;;;;;;;;;15.50;100.00;100309.31;12864062;23;20320;-73
2022/09/10 12:15:35;;;;;;;;;;;;;;;15.56;100.00;100302.16;12864221;23;19920;-71
2022/09/10 12:20:41;;;;;;;;;;;;;;;15.55;100.00;100303.06;12863543;23;19950;-73
2022/09/10 12:25:45;;;;;;;;;;;;;;;15.55;100.00;100289.97;12863895;23;20343;-74
2022/09/10 12:30:58;;;;;;;;;;;;;;;15.55;100.00;100289.97;12859987;23;19933;-73
2022/09/10 12:36:02;;;;;;;;;;;;;;;15.55;100.00;100282.13;12865487;23;19931;-72
2022/09/10 12:41:09;;;;;;;;;;;;;;;15.55;100.00;100276.91;12865625;23;19919;-72
2022/09/10 12:46:24;;;;;;;;;;;;;;;15.56;100.00;100264.69;12870318;23;19987;-75
2022/09/10 12:51:32;;;;;;;;;;;;;;;15.61;100.00;100262.78;12869530;23;20273;-73
2022/09/10 12:56:42;;;;;;;;;;;;;;;15.59;100.00;100254.97;12868541;23;19954;-74
2022/09/10 13:01:47;;;;;;;;;;;;;;;15.66;100.00;100261.72;12883452;23;19951;-73
2022/09/10 13:06:52;;;;;;;;;;;;;;;15.54;100.00;100256.88;12863493;23;19973;-72
2022/09/10 13:11:58;;;;;;;;;;;;;;;15.61;100.00;100255.78;12859458;23;20007;-71
2022/09/10 13:17:03;;;;;;;;;;;;;;;15.66;100.00;100253.88;12859394;23;20018;-75
2022/09/10 13:22:29;;;;;;;;;;;;;;;15.64;100.00;100246.97;12859407;23;20008;-74
2022/09/10 13:27:36;;;;;;;;;;;;;;;15.66;100.00;100243.41;12860503;23;20002;-72
2022/09/10 13:32:43;;;;;;;;;;;;;;;15.63;100.00;100243.50;12859964;23;19931;-67
2022/09/10 13:37:58;;;;;;;;;;;;;;;15.59;100.00;100241.88;12858833;23;20359;-69
2022/09/10 13:43:12;;;;;;;;;;;;;;;15.52;100.00;100235.16;12858771;23;20018;-68
2022/09/10 13:48:19;;;;;;;;;;;;;;;15.54;100.00;100235.09;12858953;23;20300;-67
2022/09/10 13:53:23;;;;;;;;;;;;;;;15.53;100.00;100238.63;12879829;23;19924;-68
2022/09/10 13:58:28;;;;;;;;;;;;;;;15.48;100.00;100233.53;12858664;23;20054;-67
2022/09/10 14:03:33;;;;;;;;;;;;;;;15.56;100.00;100226.31;12858435;23;19951;-67
2022/09/10 14:08:38;;;;;;;;;;;;;;;15.58;100.00;100224.47;12858398;23;20223;-69
2022/09/10 14:13:43;;;;;;;;;;;;;;;15.59;100.00;100226.19;12859198;23;20027;-67
2022/09/10 14:18:50;;;;;;;;;;;;;;;15.62;100.00;100225.22;12858844;23;19943;-74
2022/09/10 14:23:54;;;;;;;;;;;;;;;15.64;100.00;100218.19;12882043;23;19959;-71
2022/09/10 14:28:58;;;;;;;;;;;;;;;15.65;100.00;100223.34;12860703;23;19935;-70
2022/09/10 14:34:16;;;;;;;;;;;;;;;15.59;100.00;100218.34;12862271;23;19987;-67
2022/09/10 14:39:22;;;;;;;;;;;;;;;15.52;100.00;100215.97;12863326;23;19991;-68
2022/09/10 14:44:28;;;;;;;;;;;;;;;15.42;100.00;100215.41;12885920;23;19934;-69
2022/09/10 14:49:32;;;;;;;;;;;;;;;15.45;100.00;100225.78;12883918;23;19990;-68
2022/09/10 14:54:37;;;;;;;;;;;;;;;15.41;100.00;100223.31;12863014;23;20015;-70
2022/09/10 14:59:40;;;;;;;;;;;;;;;15.35;100.00;100221.72;12863063;23;20394;-67
2022/09/10 15:04:43;;;;;;;;;;;;;;;15.41;100.00;100218.91;12862035;23;19935;-72
2022/09/10 15:09:48;;;;;;;;;;;;;;;15.55;100.00;100219.34;12861951;23;20006;-71
2022/09/10 15:14:51;;;;;;;;;;;;;;;15.56;100.00;100212.34;12862542;23;20007;-71
2022/09/10 15:19:54;;;;;;;;;;;;;;;15.53;100.00;100202.84;12861570;23;19947;-68
2022/09/10 15:24:59;;;;;;;;;;;;;;;15.44;100.00;100211.00;12862130;23;19955;-67
2022/09/10 15:30:17;;;;;;;;;;;;;;;15.43;100.00;100214.50;12861233;23;20066;-66
2022/09/10 15:35:20;;;;;;;;;;;;;;;15.37;100.00;100205.97;12860913;23;19943;-66
2022/09/10 15:40:24;;;;;;;;;;;;;;;15.39;100.00;100215.50;12861364;23;19955;-67
2022/09/10 15:45:28;;;;;;;;;;;;;;;15.35;100.00;100221.72;12862196;23;20291;-70
2022/09/10 15:50:31;;;;;;;;;;;;;;;15.42;100.00;100212.81;12861204;23;20014;-72
2022/09/10 15:55:36;;;;;;;;;;;;;;;15.37;100.00;100212.06;12861600;23;19923;-70
2022/09/10 16:00:39;;;;;;;;;;;;;;;15.40;100.00;100208.50;12863571;23;19952;-71
2022/09/10 16:05:42;;;;;;;;;;;;;;;15.42;100.00;100206.72;12860463;23;19970;-72
2022/09/10 16:10:47;;;;;;;;;;;;;;;15.39;100.00;100204.16;12860992;23;19951;-73
2022/09/10 16:16:00;;;;;;;;;;;;;;;15.33;100.00;100199.97;12862958;23;19930;-71
2022/09/10 16:21:08;;;;;;;;;;;;;;;15.39;100.00;100196.31;12866440;23;19931;-70
2022/09/10 16:26:14;;;;;;;;;;;;;;;15.37;100.00;100196.38;12862762;23;19943;-73
2022/09/10 16:31:18;;;;;;;;;;;;;;;15.39;100.00;100186.72;12860875;23;19920;-73
2022/09/10 16:36:22;;;;;;;;;;;;;;;15.37;100.00;100188.53;12860176;23;20267;-71
2022/09/10 16:41:27;;;;;;;;;;;;;;;15.35;100.00;100185.09;12860053;23;19942;-73
2022/09/10 16:46:30;;;;;;;;;;;;;;;15.34;100.00;100177.31;12859871;23;19994;-72
2022/09/10 16:51:34;;;;;;;;;;;;;;;15.31;100.00;100177.38;12859740;23;20309;-73
2022/09/10 16:56:39;;;;;;;;;;;;;;;15.24;100.00;100175.91;12860853;23;19946;-72
2022/09/10 17:01:43;;;;;;;;;;;;;;;15.23;100.00;100175.03;12860108;23;19920;-74
2022/09/10 17:06:46;;;;;;;;;;;;;;;15.11;100.00;100177.19;12859303;23;19999;-70
2022/09/10 17:11:51;;;;;;;;;;;;;;;15.09;100.00;100174.59;12859898;23;20327;-72
2022/09/10 17:16:55;;;;;;;;;;;;;;;14.93;100.00;100176.84;12859282;23;20331;-71
2022/09/10 17:21:58;;;;;;;;;;;;;;;15.03;100.00;100173.03;12858690;23;19946;-72
2022/09/10 17:27:02;;;;;;;;;;;;;;;14.98;100.00;100176.69;12859151;23;20011;-74
2022/09/10 17:32:05;;;;;;;;;;;;;;;15.07;100.00;100176.41;12864897;23;20022;-72
2022/09/10 17:37:08;;;;;;;;;;;;;;;15.10;100.00;100178.91;12858748;23;19955;-76
2022/09/10 17:42:12;;;;;;;;;;;;;;;15.13;100.00;100172.75;12859433;23;19934;-71
2022/09/10 17:47:15;;;;;;;;;;;;;;;15.07;100.00;100169.44;12858902;23;19958;-71
2022/09/10 17:52:18;;;;;;;;;;;;;;;15.05;100.00;100165.16;12832312;23;19947;-74
2022/09/10 17:57:23;;;;;;;;;;;;;;;15.04;100.00;100161.69;12860242;23;19955;-76
2022/09/10 18:02:27;;;;;;;;;;;;;;;15.10;100.00;100155.41;12860245;23;20446;-72
2022/09/10 18:07:31;;;;;;;;;;;;;;;15.07;100.00;100158.97;12860627;23;19924;-73
2022/09/10 18:12:35;;;;;;;;;;;;;;;15.02;100.00;100165.25;12858913;23;19958;-72
2022/09/10 18:17:38;;;;;;;;;;;;;;;15.05;100.00;100163.41;12859376;23;19945;-71
2022/09/10 18:22:41;;;;;;;;;;;;;;;15.01;100.00;100163.56;12859026;23;19999;-71
2022/09/10 18:27:46;;;;;;;;;;;;;;;15.03;100.00;100162.59;12858594;23;20006;-75
2022/09/10 18:32:50;;;;;;;;;;;;;;;15.05;100.00;100167.75;12858931;23;20160;-74
2022/09/10 18:37:55;;;;;;;;;;;;;;;15.01;100.00;100167.00;12858510;23;20000;-71
2022/09/10 18:43:00;;;;;;;;;;;;;;;14.96;100.00;100168.06;12859061;23;20316;-74
2022/09/10 18:48:03;;;;;;;;;;;;;;;14.99;100.00;100168.84;12858225;23;19966;-73
2022/09/10 18:53:06;;;;;;;;;;;;;;;15.02;100.00;100165.25;12858289;23;20326;-71
2022/09/10 18:58:10;;;;;;;;;;;;;;;15.01;100.00;100167.00;12858663;23;19920;-73
2022/09/10 19:03:14;;;;;;;;;;;;;;;15.00;100.00;100167.91;12858131;23;19931;-71
2022/09/10 19:08:18;;;;;;;;;;;;;;;15.00;100.00;100154.84;12857612;23;19923;-75
2022/09/10 19:13:22;;;;;;;;;;;;;;;14.93;100.00;100153.31;12861578;23;19975;-73
2022/09/10 19:18:26;;;;;;;;;;;;;;;14.95;100.00;100153.28;12861784;23;19991;-71
2022/09/10 19:23:29;;;;;;;;;;;;;;;14.94;100.00;100149.78;12862408;23;19984;-75
2022/09/10 19:28:34;;;;;;;;;;;;;;;14.90;100.00;100147.34;12862059;23;19978;-73
2022/09/10 19:33:38;;;;;;;;;;;;;;;14.89;100.00;100133.41;12873364;23;20342;-70
2022/09/10 19:38:42;;;;;;;;;;;;;;;14.91;100.00;100135.97;12863978;23;19928;-76
2022/09/10 19:43:47;;;;;;;;;;;;;;;14.89;100.00;100133.41;12863844;23;20004;-73
2022/09/10 19:48:51;;;;;;;;;;;;;;;14.93;100.00;100132.41;12862402;23;19923;-72
2022/09/10 19:53:55;;;;;;;;;;;;;;;14.91;100.00;100120.28;12861807;23;19995;-75
2022/09/10 19:59:01;;;;;;;;;;;;;;;14.89;100.00;100120.34;12861259;23;19966;-72
2022/09/10 20:04:06;;;;;;;;;;;;;;;14.87;100.00;100121.31;12873444;23;19927;-72
2022/09/10 20:09:11;;;;;;;;;;;;;;;14.86;100.00;100120.44;12835786;23;20046;-72
2022/09/10 20:14:15;;;;;;;;;;;;;;;14.83;100.00;100111.84;12860815;23;19935;-75
2022/09/10 20:19:20;;;;;;;;;;;;;;;14.86;100.00;100114.34;12834872;23;19924;-72
2022/09/10 20:24:27;;;;;;;;;;;;;;;14.87;100.00;100111.72;12834213;23;20219;-72
2022/09/10 20:29:32;;;;;;;;;;;;;;;14.79;100.00;100111.09;12860322;23;19957;-72
2022/09/10 20:34:35;;;;;;;;;;;;;;;14.81;100.00;100105.81;12860845;23;19927;-74
2022/09/10 20:39:40;;;;;;;;;;;;;;;14.82;100.00;100104.91;12859839;23;19923;-70
2022/09/10 20:44:45;;;;;;;;;;;;;;;14.77;100.00;100101.59;12873216;23;19951;-71
2022/09/10 20:49:48;;;;;;;;;;;;;;;14.68;100.00;100094.03;12860479;23;20327;-72
2022/09/10 20:54:51;;;;;;;;;;;;;;;14.73;100.00;100094.75;12861835;23;19934;-72
2022/09/10 20:59:56;;;;;;;;;;;;;;;14.74;100.00;100094.69;12860319;23;20240;-70
2022/09/10 21:04:59;;;;;;;;;;;;;;;14.71;100.00;100093.94;12863097;23;19999;-72
2022/09/10 21:10:02;;;;;;;;;;;;;;;14.69;100.00;100094.00;12859595;23;19955;-72
2022/09/10 21:15:07;;;;;;;;;;;;;;;14.69;100.00;100085.28;12859596;23;19954;-73
2022/09/10 21:20:11;;;;;;;;;;;;;;;14.67;100.00;100084.47;12860392;23;20351;-72
2022/09/10 21:25:15;;;;;;;;;;;;;;;14.68;100.00;100075.75;12861415;23;19924;-69
2022/09/10 21:30:19;;;;;;;;;;;;;;;14.66;100.00;100077.56;12861751;23;19947;-72
2022/09/10 21:35:22;;;;;;;;;;;;;;;14.63;100.00;100075.03;12860580;23;20286;-71
2022/09/10 21:40:25;;;;;;;;;;;;;;;14.51;100.00;100075.41;12859801;23;20014;-67
2022/09/10 21:45:29;;;;;;;;;;;;;;;14.49;100.00;100083.31;12859055;23;20056;-70
2022/09/10 21:50:32;;;;;;;;;;;;;;;14.49;100.00;100083.31;12859389;23;20010;-70
2022/09/10 21:55:35;;;;;;;;;;;;;;;14.45;100.00;100076.47;12858817;23;19954;-70
2022/09/10 22:00:40;;;;;;;;;;;;;;;14.43;100.00;100078.25;12859043;23;19943;-66
2022/09/10 22:05:43;;;;;;;;;;;;;;;14.40;100.00;100077.50;12859089;23;20239;-67
2022/09/10 22:10:46;;;;;;;;;;;;;;;14.30;100.00;100065.63;12859390;23;20010;-68
2022/09/10 22:15:51;;;;;;;;;;;;;;;14.29;100.00;100061.31;12858817;23;20212;-71
2022/09/10 22:20:57;;;;;;;;;;;;;;;14.27;100.00;100066.53;12859517;23;19991;-68
2022/09/10 22:26:04;;;;;;;;;;;;;;;14.25;100.00;100067.47;12875326;23;19999;-68
2022/09/10 22:31:10;;;;;;;;;;;;;;;14.19;100.00;100063.28;12861204;23;19920;-66
2022/09/10 22:36:15;;;;;;;;;;;;;;;14.27;100.00;100060.50;12859749;23;19939;-70
2022/09/10 22:41:18;;;;;;;;;;;;;;;14.21;100.00;100052.78;12859147;23;19920;-68
2022/09/10 22:46:22;;;;;;;;;;;;;;;14.26;100.00;100053.53;12861934;23;20019;-69
2022/09/10 22:51:27;;;;;;;;;;;;;;;14.25;100.00;100049.19;12862316;23;20315;-69
2022/09/10 22:56:30;;;;;;;;;;;;;;;14.18;100.00;100050.28;12862419;23;19970;-68
2022/09/10 23:01:35;;;;;;;;;;;;;;;14.15;100.00;100045.16;12864549;23;19919;-69
2022/09/10 23:06:39;;;;;;;;;;;;;;;14.21;100.00;100045.84;12882768;23;19924;-70
2022/09/10 23:11:42;;;;;;;;;;;;;;;14.14;100.00;100035.59;12863439;23;19948;-68
2022/09/10 23:16:48;;;;;;;;;;;;;;;14.09;100.00;100027.94;12862772;23;19959;-68
2022/09/10 23:21:53;;;;;;;;;;;;;;;14.19;100.00;100025.88;12880047;23;19923;-72
2022/09/10 23:26:56;;;;;;;;;;;;;;;14.27;100.00;100016.13;12861521;23;20362;-71
2022/09/10 23:32:00;;;;;;;;;;;;;;;14.27;100.00;100029.16;12861570;23;20300;-71
2022/09/10 23:37:04;;;;;;;;;;;;;;;14.21;100.00;100019.72;12880701;23;20227;-72
2022/09/10 23:42:07;;;;;;;;;;;;;;;14.18;100.00;100024.19;12861792;23;20003;-71
2022/09/10 23:47:12;;;;;;;;;;;;;;;14.16;100.00;100016.41;12862598;23;19986;-71
2022/09/10 23:52:16;;;;;;;;;;;;;;;14.19;100.00;100020.66;12880532;23;19963;-71
2022/09/10 23:57:19;;;;;;;;;;;;;;;14.19;100.00;100015.44;12860623;23;19920;-71
